Hauptseite
METAR-TAF:

METAR-TAF

Flughäfen :

Flughafen Kiel

Kiel, Deutschland

Breite: 54-23N, Länge: 010-10E, Höhe: 31 m

Beobachtung

Neuester Wetterbericht von vor 3 Stunden und 30 Minuten, um 15:50 UTC
Wind 12 kt aus Südwest, variierte zwischen Süd und West/Südwest
Temperatur 24°C
Luftfeuchtigkeit 50%
Luftdruck 1012 hPa
Sichtweite 10 km oder mehr
keine Wolken unter 1500 m und keine Kumulonimbus oder Gewitterwolken

METAR: EDHK 191550Z 23012KT 190V250 CAVOK 24/13 Q1012

Zeit: 21:20 (19:20 UTC)

Prognose

Neuester Wetterbericht von vor 5 Stunden und 20 Minuten, um 14:00 UTC
Gültige Prognose vom 19 um 15 UTC bis 19 um 18 UTC
Wind 10 kt aus Süd/Südwest
Sichtweite 10 km oder mehr
Aufgelockert bewölkt in der Höhe von 4000 ft
Wahrscheinlichkeit 30% :
Zeitweise
vom 19 um 15 UTC bis 19 um 17 UTC
Wind 15 kt aus Südwest, Böen bis zu 25 kt

TAF: EDHK 191400Z 1915/1918 21010KT 9999 SCT040 PROB30 TEMPO 1915/1917 23015G25KT

Wetterbeobachtungen und Prognosen von mehr als 4000 Flughäfen (METAR und TAF Bericht).

Die verfügbaren Stationen werden durch gelbe und rote Markierungen auf der Karte dargestellt.

Führen Sie die Maus auf sie, um den Namen der Station zu sehen.

Darauf klicken, um die Beobachtung von Wetterbeobachtungen und Prognosen zu sehen.

Um die Karte zu ändern : klicken Sie auf den grünen Tasten mit einem schwarzen Kreuz Zum Vergrößern, auf den grünen Button mit einem Gedankenstrich zu verkleinern, oder auf die grünen Pfeile für benachbarte Karten.


METAR-TAF: